createdAt,value
2023-05-26T00:04:44.435Z,14.13
2023-05-26T00:09:48.059Z,13.30
2023-05-26T00:14:52.804Z,14.30
2023-05-26T00:19:56.435Z,13.17
2023-05-26T00:24:59.498Z,13.67
2023-05-26T00:30:03.916Z,14.27
2023-05-26T00:35:07.949Z,13.30
2023-05-26T00:40:12.333Z,13.87
2023-05-26T00:45:17.436Z,14.77
2023-05-26T00:50:20.808Z,13.63
2023-05-26T00:55:25.314Z,13.80
2023-05-26T01:00:30.230Z,16.00
2023-05-26T01:05:33.432Z,13.87
2023-05-26T01:10:37.160Z,14.40
2023-05-26T01:15:48.320Z,14.50
2023-05-26T01:20:57.624Z,14.30
2023-05-26T01:26:23.487Z,14.27
2023-05-26T01:31:28.118Z,16.30
2023-05-26T01:36:31.201Z,14.47
2023-05-26T01:41:43.943Z,15.53
2023-05-26T01:46:51.086Z,15.83
2023-05-26T01:51:59.179Z,15.53
2023-05-26T01:57:03.497Z,15.47
2023-05-26T02:02:07.916Z,15.47
2023-05-26T02:07:11.656Z,14.87
2023-05-26T02:12:15.603Z,15.20
2023-05-26T02:17:20.157Z,15.33
2023-05-26T02:22:23.525Z,15.70
2023-05-26T02:27:27.097Z,15.50
2023-05-26T02:32:32.110Z,16.70
2023-05-26T02:37:35.945Z,15.17
2023-05-26T02:42:39.023Z,15.20
2023-05-26T02:47:43.829Z,15.87
2023-05-26T02:52:47.546Z,15.77
2023-05-26T02:57:50.921Z,14.90
2023-05-26T03:02:56.014Z,15.47
2023-05-26T03:07:59.225Z,17.93
2023-05-26T03:13:02.655Z,14.30
2023-05-26T03:18:07.793Z,18.00
2023-05-26T03:23:10.934Z,17.13
2023-05-26T03:28:14.025Z,15.57
2023-05-26T03:33:18.774Z,23.47
2023-05-26T03:38:22.254Z,20.70
2023-05-26T03:43:25.344Z,16.03
2023-05-26T03:48:30.697Z,15.17
2023-05-26T03:53:33.847Z,19.93
2023-05-26T03:58:36.898Z,17.13
2023-05-26T04:03:42.069Z,22.83
2023-05-26T04:08:48.820Z,18.03
2023-05-26T04:13:51.894Z,18.03
2023-05-26T04:18:56.257Z,19.27
2023-05-26T04:23:59.351Z,21.47
2023-05-26T04:29:02.944Z,19.93
2023-05-26T04:34:07.538Z,17.47
2023-05-26T04:39:11.013Z,20.53
2023-05-26T04:44:14.795Z,18.57
2023-05-26T04:49:19.162Z,19.17
2023-05-26T04:54:22.695Z,20.67
2023-05-26T04:59:26.307Z,18.03
2023-05-26T05:04:30.741Z,20.10
2023-05-26T05:09:33.823Z,17.27
2023-05-26T05:14:37.235Z,17.57
2023-05-26T05:19:41.850Z,21.83
2023-05-26T05:24:44.941Z,18.53
2023-05-26T05:29:48.564Z,20.10
2023-05-26T05:34:53.131Z,17.53
2023-05-26T05:39:56.739Z,26.20
2023-05-26T05:45:01.208Z,20.53
2023-05-26T05:50:09.317Z,20.70
2023-05-26T05:55:13.119Z,18.57
2023-05-26T06:00:17.083Z,19.43
2023-05-26T06:05:22.290Z,22.13
2023-05-26T06:10:25.548Z,20.63
2023-05-26T06:15:28.649Z,24.33
2023-05-26T06:20:33.185Z,19.73
2023-05-26T06:25:36.706Z,19.17
2023-05-26T06:30:40.306Z,16.43
2023-05-26T06:35:44.915Z,17.30
2023-05-26T06:40:48.094Z,17.73
2023-05-26T06:45:51.508Z,14.17
2023-05-26T06:50:56.035Z,17.27
2023-05-26T06:55:59.096Z,19.57
2023-05-26T07:01:03.497Z,18.53
2023-05-26T07:06:08.507Z,15.60
2023-05-26T07:11:11.903Z,19.43
2023-05-26T07:16:15.037Z,17.17
2023-05-26T07:21:20.307Z,16.90
2023-05-26T07:26:24.117Z,17.60
2023-05-26T07:31:27.333Z,18.00
2023-05-26T07:36:32.458Z,16.53
2023-05-26T07:41:36.792Z,16.50
2023-05-26T07:46:41.072Z,15.38
2023-05-26T07:51:45.589Z,14.55
2023-05-26T07:56:48.691Z,15.77
2023-05-26T08:01:51.758Z,13.43
2023-05-26T08:06:56.154Z,14.10
2023-05-26T08:11:59.615Z,16.30
2023-05-26T08:17:02.687Z,11.88
2023-05-26T08:22:07.127Z,14.32
2023-05-26T08:27:10.679Z,13.60
2023-05-26T08:32:13.747Z,14.30
2023-05-26T08:37:19.968Z,12.85
2023-05-26T08:42:33.188Z,12.05
2023-05-26T08:47:37.991Z,10.27
2023-05-26T08:58:06.816Z,11.57
2023-05-26T09:03:10.054Z,12.38
2023-05-26T09:08:14.869Z,12.60
2023-05-26T09:13:19.220Z,11.23
2023-05-26T09:18:22.802Z,9.43
2023-05-26T09:23:28.410Z,11.63
2023-05-26T09:28:31.452Z,10.65
2023-05-26T09:33:34.504Z,10.75
2023-05-26T09:38:38.951Z,9.38
2023-05-26T09:43:42.227Z,9.27
2023-05-26T09:48:51.399Z,11.55
2023-05-26T09:53:56.517Z,9.35
2023-05-26T09:59:00.543Z,11.35
2023-05-26T10:04:06.893Z,8.77
2023-05-26T10:09:12.714Z,17.10
2023-05-26T10:14:16.423Z,11.50
2023-05-26T10:19:20.040Z,11.25
2023-05-26T10:24:30.026Z,12.88
2023-05-26T10:29:39.360Z,12.23
2023-05-26T10:34:44.746Z,10.00
2023-05-26T10:39:50.014Z,9.52
2023-05-26T10:44:56.118Z,11.98
2023-05-26T10:50:00.923Z,12.98
2023-05-26T10:55:08.503Z,11.82
2023-05-26T11:00:22.818Z,10.27
2023-05-26T11:05:33.080Z,12.00
2023-05-26T11:11:03.582Z,10.20
2023-05-26T11:16:17.793Z,12.43
2023-05-26T11:21:25.234Z,10.23
2023-05-26T11:26:31.648Z,9.75
2023-05-26T11:31:35.343Z,13.38
2023-05-26T11:36:38.888Z,12.18
2023-05-26T11:41:44.390Z,10.73
2023-05-26T11:46:47.883Z,10.80
2023-05-26T11:51:52.572Z,14.40
2023-05-26T11:56:57.087Z,11.75
2023-05-26T12:02:01.943Z,11.13
2023-05-26T12:07:05.504Z,11.02
2023-05-26T12:12:13.587Z,9.80
2023-05-26T12:17:17.865Z,10.30
2023-05-26T12:22:28.894Z,10.18
2023-05-26T12:27:38.628Z,12.25
2023-05-26T12:32:42.270Z,12.93
2023-05-26T12:37:45.883Z,11.23
2023-05-26T12:42:51.065Z,9.70
2023-05-26T12:47:54.698Z,13.20
2023-05-26T12:52:57.867Z,10.55
2023-05-26T12:58:02.487Z,10.35
2023-05-26T13:03:05.916Z,10.63
2023-05-26T13:08:09.059Z,12.15
2023-05-26T13:13:14.322Z,10.20
2023-05-26T13:18:17.763Z,12.48
2023-05-26T13:23:21.385Z,10.63
2023-05-26T13:28:26.187Z,11.75
2023-05-26T13:33:29.259Z,16.45
2023-05-26T13:38:32.327Z,10.63
2023-05-26T13:43:38.203Z,10.18
2023-05-26T13:48:41.612Z,11.52
2023-05-26T13:53:44.671Z,11.68
2023-05-26T13:58:50.483Z,10.63
2023-05-26T14:03:55.401Z,10.63
2023-05-26T14:08:59.537Z,10.48
2023-05-26T14:14:04.249Z,11.20
2023-05-26T14:19:16.166Z,10.05
2023-05-26T14:24:20.639Z,10.23
2023-05-26T14:29:25.556Z,8.90
2023-05-26T14:34:28.610Z,12.18
2023-05-26T14:39:32.126Z,10.10
2023-05-26T14:44:36.584Z,12.00
2023-05-26T14:49:39.665Z,11.45
2023-05-26T14:54:42.702Z,9.75
2023-05-26T14:59:47.129Z,11.18
2023-05-26T15:04:50.731Z,11.43
2023-05-26T15:09:54.291Z,10.88
2023-05-26T15:14:58.658Z,11.30
2023-05-26T15:20:01.964Z,13.52
2023-05-26T15:25:06.047Z,10.45
2023-05-26T15:35:15.625Z,11.98
2023-05-26T15:40:19.277Z,12.68
2023-05-26T15:45:23.916Z,10.10
2023-05-26T15:50:27.525Z,13.18
2023-05-26T15:55:31.162Z,12.45
2023-05-26T16:00:35.979Z,10.70
2023-05-26T16:05:39.283Z,11.45
2023-05-26T16:10:42.801Z,11.93
2023-05-26T16:15:47.418Z,11.52
2023-05-26T16:20:51.308Z,12.93
2023-05-26T16:25:54.846Z,9.00
2023-05-26T16:30:59.805Z,11.77
2023-05-26T16:36:03.375Z,9.50
2023-05-26T16:41:08.972Z,9.93
2023-05-26T16:46:13.609Z,10.38
2023-05-26T16:51:18.990Z,10.80
2023-05-26T16:56:23.282Z,11.43
2023-05-26T17:01:28.047Z,9.85
2023-05-26T17:06:31.556Z,13.60
2023-05-26T17:11:34.612Z,9.18
2023-05-26T17:16:42.255Z,13.80
2023-05-26T17:21:45.474Z,12.30
2023-05-26T17:26:49.000Z,12.07
2023-05-26T17:31:53.923Z,10.55
2023-05-26T17:36:57.405Z,10.07
2023-05-26T17:42:00.654Z,11.85
2023-05-26T17:47:05.931Z,10.95
2023-05-26T17:52:09.199Z,13.18
2023-05-26T17:57:12.625Z,12.50
2023-05-26T18:02:17.427Z,13.70
2023-05-26T18:07:21.488Z,12.60
2023-05-26T18:12:25.273Z,13.87
2023-05-26T18:17:31.520Z,12.10
2023-05-26T18:22:36.594Z,11.57
2023-05-26T18:27:39.674Z,11.07
2023-05-26T18:32:44.657Z,12.47
2023-05-26T18:37:50.674Z,8.73
2023-05-26T18:42:54.036Z,12.63
2023-05-26T18:47:58.931Z,11.03
2023-05-26T18:53:03.630Z,10.40
2023-05-26T18:58:07.094Z,10.87
2023-05-26T19:03:12.476Z,8.93
2023-05-26T19:08:16.461Z,12.13
2023-05-26T19:13:19.589Z,11.57
2023-05-26T19:18:24.257Z,12.03
2023-05-26T19:23:31.161Z,9.57
2023-05-26T19:28:37.157Z,10.03
2023-05-26T19:33:43.671Z,9.50
2023-05-26T19:38:47.287Z,9.77
2023-05-26T19:43:50.885Z,7.67
2023-05-26T19:48:56.515Z,8.33
2023-05-26T19:54:00.128Z,7.77
2023-05-26T19:59:03.203Z,10.60
2023-05-26T20:04:08.201Z,7.53
2023-05-26T20:09:11.938Z,9.20
2023-05-26T20:14:15.269Z,8.53
2023-05-26T20:19:22.240Z,10.90
2023-05-26T20:24:26.030Z,10.07
2023-05-26T20:29:29.408Z,12.43
2023-05-26T20:34:34.014Z,9.07
2023-05-26T20:39:37.578Z,7.67
2023-05-26T20:44:40.657Z,7.97
2023-05-26T20:49:45.694Z,10.50
2023-05-26T20:54:48.758Z,12.20
2023-05-26T20:59:52.329Z,7.93
2023-05-26T21:04:56.728Z,10.30
2023-05-26T21:10:00.243Z,11.13
2023-05-26T21:15:03.723Z,8.33
2023-05-26T21:20:10.344Z,9.13
2023-05-26T21:25:13.921Z,7.97
2023-05-26T21:30:20.252Z,8.13
2023-05-26T21:35:24.703Z,7.33
2023-05-26T21:40:28.151Z,9.90
2023-05-26T21:45:32.560Z,8.83
2023-05-26T21:50:36.954Z,8.83
2023-05-26T21:55:40.800Z,8.93
2023-05-26T22:00:44.327Z,9.37
2023-05-26T22:05:48.722Z,10.43
2023-05-26T22:10:52.183Z,7.50
2023-05-26T22:15:55.341Z,7.63
2023-05-26T22:21:00.438Z,9.00
2023-05-26T22:26:03.922Z,11.30
2023-05-26T22:31:07.060Z,8.73
2023-05-26T22:36:11.907Z,7.10
2023-05-26T22:41:15.067Z,9.47
2023-05-26T22:46:18.180Z,8.83
2023-05-26T22:51:22.703Z,7.57
2023-05-26T22:56:26.567Z,8.73
2023-05-26T23:01:30.353Z,9.57
2023-05-26T23:06:34.869Z,10.73
2023-05-26T23:11:38.359Z,10.17
2023-05-26T23:16:41.810Z,9.07
2023-05-26T23:21:46.637Z,10.27
2023-05-26T23:26:53.468Z,9.47
2023-05-26T23:31:57.000Z,11.00
2023-05-26T23:37:01.801Z,7.93
2023-05-26T23:42:06.721Z,8.60
2023-05-26T23:47:10.412Z,9.23
2023-05-26T23:52:15.181Z,10.77
2023-05-26T23:57:18.750Z,12.53
